Time;durP1;ratioP1;P1;durP2;ratioP2;P2;SDS_P1;SDS_P2;PMS_P1;PMS_P2;Temp;Humidity;BMP_temperature;BMP_pressure;BME280_temperature;BME280_humidity;BME280_pressure;Samples;Min_cycle;Max_cycle;Signal;HPM_P1;HPM_P2
2023/01/25 00:01:55;;;;;;;17.08;13.98;;;1.20;99.90;;;;;;5017453;28;20412;-63
2023/01/25 00:04:22;;;;;;;15.15;13.55;;;1.30;99.90;;;;;;5017329;28;20440;-62
2023/01/25 00:06:50;;;;;;;16.55;13.30;;;1.30;99.90;;;;;;5017796;28;20435;-62
2023/01/25 00:09:19;;;;;;;15.65;13.50;;;1.30;99.90;;;;;;5017462;28;20424;-61
2023/01/25 00:11:46;;;;;;;13.73;12.00;;;1.30;99.90;;;;;;5016910;28;20424;-62
2023/01/25 00:14:14;;;;;;;14.20;12.05;;;1.30;99.90;;;;;;5016615;28;20419;-61
2023/01/25 00:16:42;;;;;;;15.23;12.75;;;1.30;99.90;;;;;;5016194;28;20466;-63
2023/01/25 00:19:09;;;;;;;18.13;13.65;;;1.30;99.90;;;;;;5016712;28;20443;-62
2023/01/25 00:21:37;;;;;;;15.32;12.60;;;1.30;99.90;;;;;;5018444;28;20429;-62
2023/01/25 00:24:05;;;;;;;14.88;12.10;;;1.30;99.90;;;;;;5020777;28;20418;-62
2023/01/25 00:26:34;;;;;;;15.35;12.20;;;1.30;99.90;;;;;;5021501;28;20427;-62
2023/01/25 00:29:01;;;;;;;14.55;12.35;;;1.30;99.90;;;;;;5020207;28;20412;-61
2023/01/25 00:31:37;;;;;;;13.93;11.40;;;1.30;99.90;;;;;;5020822;28;20423;-61
2023/01/25 00:34:20;;;;;;;13.98;11.65;;;1.20;99.90;;;;;;5020771;28;20427;-62
2023/01/25 00:36:49;;;;;;;14.30;11.80;;;1.20;99.90;;;;;;5018802;28;20412;-62
2023/01/25 00:39:15;;;;;;;13.18;11.35;;;1.20;99.90;;;;;;5018377;28;20440;-62
2023/01/25 00:41:44;;;;;;;15.20;12.50;;;1.20;99.90;;;;;;5018312;28;20448;-62
2023/01/25 00:44:11;;;;;;;13.65;10.88;;;1.20;99.90;;;;;;5016772;28;20413;-62
2023/01/25 00:46:38;;;;;;;13.73;11.13;;;1.30;99.90;;;;;;5017120;28;20412;-63
2023/01/25 00:49:04;;;;;;;13.30;10.85;;;1.30;99.90;;;;;;5016681;28;20412;-62
2023/01/25 00:51:31;;;;;;;11.65;10.10;;;1.20;99.90;;;;;;5018191;28;20423;-62
2023/01/25 00:53:58;;;;;;;13.30;10.90;;;1.20;99.90;;;;;;5017247;28;20416;-62
2023/01/25 00:56:25;;;;;;;12.88;10.32;;;1.20;99.90;;;;;;5023783;28;20467;-62
2023/01/25 00:58:53;;;;;;;13.35;11.05;;;1.30;99.90;;;;;;5029489;28;20435;-62
2023/01/25 01:01:19;;;;;;;14.65;11.73;;;1.20;99.90;;;;;;5026494;28;20421;-62
2023/01/25 01:03:46;;;;;;;12.75;10.60;;;1.20;99.90;;;;;;5026307;28;20896;-62
2023/01/25 01:06:13;;;;;;;14.30;11.40;;;1.30;99.90;;;;;;5028434;28;20496;-62
2023/01/25 01:08:41;;;;;;;13.77;11.30;;;1.30;99.90;;;;;;5021439;28;20421;-62
2023/01/25 01:11:11;;;;;;;14.57;11.10;;;1.30;99.90;;;;;;5016103;28;20421;-61
2023/01/25 01:13:38;;;;;;;14.40;11.80;;;1.30;99.90;;;;;;5016773;28;20417;-63
2023/01/25 01:16:10;;;;;;;14.52;11.90;;;1.30;99.90;;;;;;5015779;28;20413;-61
2023/01/25 01:18:39;;;;;;;14.65;11.43;;;1.30;99.90;;;;;;5015607;28;20432;-62
2023/01/25 01:21:07;;;;;;;15.82;12.02;;;1.30;99.90;;;;;;5015058;28;20413;-61
2023/01/25 01:23:35;;;;;;;16.15;12.60;;;1.30;99.90;;;;;;5014561;28;20439;-62
2023/01/25 01:26:02;;;;;;;14.00;11.73;;;1.30;99.90;;;;;;5015290;28;20784;-62
2023/01/25 01:28:29;;;;;;;15.18;12.00;;;1.30;99.90;;;;;;5014957;28;20784;-62
2023/01/25 01:31:00;;;;;;;16.77;12.55;;;1.30;99.90;;;;;;5014669;28;20428;-62
2023/01/25 01:33:28;;;;;;;16.10;12.18;;;1.30;99.90;;;;;;5014335;28;20440;-62
2023/01/25 01:35:55;;;;;;;15.63;11.80;;;1.30;99.90;;;;;;5014545;28;20464;-62
2023/01/25 01:38:21;;;;;;;15.50;12.30;;;1.30;99.90;;;;;;5014629;28;20804;-62
2023/01/25 01:40:49;;;;;;;15.67;11.80;;;1.30;99.90;;;;;;5013780;28;20421;-62
2023/01/25 01:43:18;;;;;;;17.02;12.65;;;1.30;99.90;;;;;;5014533;28;20428;-62
2023/01/25 01:45:54;;;;;;;16.25;12.30;;;1.40;99.90;;;;;;5014668;28;20425;-63
2023/01/25 01:48:32;;;;;;;15.32;12.73;;;1.40;99.90;;;;;;5014311;28;20431;-62
2023/01/25 01:51:01;;;;;;;13.17;10.90;;;1.40;99.90;;;;;;5014417;28;20506;-62
2023/01/25 01:53:30;;;;;;;15.43;11.90;;;1.40;99.90;;;;;;5013679;28;20416;-62
2023/01/25 01:56:00;;;;;;;14.02;11.27;;;1.40;99.90;;;;;;5013639;28;20417;-62
2023/01/25 01:58:28;;;;;;;16.97;12.83;;;1.30;99.90;;;;;;5013410;28;21009;-62
2023/01/25 02:00:55;;;;;;;16.03;12.47;;;1.30;99.90;;;;;;5013630;28;20883;-62
2023/01/25 02:03:23;;;;;;;16.02;11.75;;;1.30;99.90;;;;;;5013425;28;20416;-63
2023/01/25 02:05:58;;;;;;;16.95;12.32;;;1.30;99.90;;;;;;5013457;28;20431;-62
2023/01/25 02:08:26;;;;;;;15.40;12.40;;;1.30;99.90;;;;;;5013188;28;20413;-63
2023/01/25 02:10:53;;;;;;;16.35;12.55;;;1.30;99.90;;;;;;5013620;28;20416;-62
2023/01/25 02:13:20;;;;;;;16.23;12.45;;;1.30;99.90;;;;;;5013022;28;20423;-61
2023/01/25 02:15:50;;;;;;;20.95;14.18;;;1.30;99.90;;;;;;5013290;28;20424;-61
2023/01/25 02:18:18;;;;;;;16.53;12.80;;;1.30;99.90;;;;;;5013242;28;20455;-61
2023/01/25 02:20:47;;;;;;;17.42;13.48;;;1.30;99.90;;;;;;5014377;28;20424;-62
2023/01/25 02:23:24;;;;;;;14.45;11.80;;;1.30;99.90;;;;;;5013304;28;20783;-62
2023/01/25 02:25:52;;;;;;;17.77;13.18;;;1.30;99.90;;;;;;5013765;28;20503;-62
2023/01/25 02:28:24;;;;;;;18.20;13.20;;;1.30;99.90;;;;;;5013426;28;20425;-62
2023/01/25 02:30:50;;;;;;;17.17;13.05;;;1.30;99.90;;;;;;5013376;28;20426;-62
2023/01/25 02:33:18;;;;;;;17.08;12.50;;;1.30;99.90;;;;;;5013122;28;20420;-62
2023/01/25 02:35:46;;;;;;;17.60;12.63;;;1.30;99.90;;;;;;5017948;28;20441;-61
2023/01/25 02:38:16;;;;;;;18.40;13.13;;;1.30;99.90;;;;;;5018136;28;20409;-62
2023/01/25 02:40:47;;;;;;;17.40;13.07;;;1.30;99.90;;;;;;5018208;28;20428;-62
2023/01/25 02:43:16;;;;;;;17.77;12.00;;;1.30;99.90;;;;;;5017706;28;20412;-62
2023/01/25 02:45:47;;;;;;;16.75;11.93;;;1.30;99.90;;;;;;5017477;28;20903;-62
2023/01/25 02:48:14;;;;;;;15.95;11.75;;;1.30;99.90;;;;;;5019098;28;20420;-62
2023/01/25 02:50:41;;;;;;;14.95;11.50;;;1.30;99.90;;;;;;5017491;28;20803;-62
2023/01/25 02:53:08;;;;;;;14.13;11.10;;;1.30;99.90;;;;;;5017515;28;20417;-62
2023/01/25 02:55:34;;;;;;;16.08;11.48;;;1.30;99.90;;;;;;5016442;28;20417;-62
2023/01/25 02:58:01;;;;;;;13.70;10.07;;;1.40;99.90;;;;;;5016436;28;20417;-60
2023/01/25 03:00:29;;;;;;;14.25;11.32;;;1.40;99.90;;;;;;5015573;28;20927;-62
2023/01/25 03:02:56;;;;;;;17.40;12.10;;;1.30;99.90;;;;;;5015360;28;20761;-61
2023/01/25 03:05:23;;;;;;;15.60;11.40;;;1.30;99.90;;;;;;5014743;28;20424;-62
2023/01/25 03:07:49;;;;;;;16.07;11.23;;;1.30;99.90;;;;;;5017759;28;20467;-63
2023/01/25 03:10:16;;;;;;;14.65;11.05;;;1.30;99.90;;;;;;5018140;28;20408;-63
2023/01/25 03:12:43;;;;;;;15.88;11.43;;;1.30;99.90;;;;;;5021022;28;20424;-62
2023/01/25 03:15:10;;;;;;;16.33;11.43;;;1.30;99.90;;;;;;5024186;28;20476;-63
2023/01/25 03:17:38;;;;;;;16.42;11.40;;;1.40;99.90;;;;;;5022375;28;20437;-62
2023/01/25 03:20:06;;;;;;;15.73;11.15;;;1.40;99.90;;;;;;5023985;28;20436;-62
2023/01/25 03:22:32;;;;;;;13.93;11.00;;;1.30;99.90;;;;;;5014876;28;20417;-62
2023/01/25 03:24:59;;;;;;;13.07;9.90;;;1.30;99.90;;;;;;5020745;28;20416;-63
2023/01/25 03:27:28;;;;;;;13.80;10.80;;;1.40;99.90;;;;;;5014469;28;20412;-63
2023/01/25 03:29:55;;;;;;;13.88;10.70;;;1.30;99.90;;;;;;5013490;28;20416;-62
2023/01/25 03:32:22;;;;;;;14.15;10.15;;;1.30;99.90;;;;;;5013774;28;20428;-62
2023/01/25 03:34:50;;;;;;;12.38;9.70;;;1.30;99.90;;;;;;5013817;28;20785;-62
2023/01/25 03:37:17;;;;;;;14.30;9.65;;;1.30;99.90;;;;;;5013564;28;20511;-63
2023/01/25 03:39:44;;;;;;;13.68;9.73;;;1.30;99.90;;;;;;5013277;28;20440;-62
2023/01/25 03:42:11;;;;;;;12.55;9.48;;;1.30;99.90;;;;;;5013832;28;20423;-62
2023/01/25 03:44:37;;;;;;;12.80;9.27;;;1.30;99.90;;;;;;5013199;28;20421;-62
2023/01/25 03:47:04;;;;;;;13.63;9.45;;;1.30;99.90;;;;;;5013304;28;20423;-63
2023/01/25 03:49:31;;;;;;;12.05;9.60;;;1.30;99.90;;;;;;5012949;28;20853;-63
2023/01/25 03:51:59;;;;;;;10.52;7.70;;;1.30;99.90;;;;;;5012840;28;20417;-62
2023/01/25 03:54:26;;;;;;;10.03;7.83;;;1.20;99.90;;;;;;5012350;28;20787;-62
2023/01/25 03:56:52;;;;;;;9.10;7.90;;;1.20;99.90;;;;;;5013224;28;20516;-61
2023/01/25 03:59:19;;;;;;;12.43;8.95;;;1.10;99.90;;;;;;5012441;28;20440;-62
2023/01/25 04:01:46;;;;;;;11.45;9.20;;;1.10;99.90;;;;;;5012345;28;20848;-63
2023/01/25 04:04:13;;;;;;;11.73;8.70;;;1.00;99.90;;;;;;5015203;28;20420;-62
2023/01/25 04:06:40;;;;;;;11.88;8.45;;;1.00;99.90;;;;;;5016682;28;20787;-62
2023/01/25 04:11:04;;;;;;;11.65;8.80;;;1.10;99.90;;;;;;5091576;28;20843;-62
2023/01/25 04:13:33;;;;;;;10.80;8.60;;;1.10;99.90;;;;;;5091009;28;20490;-62
2023/01/25 04:16:01;;;;;;;12.38;9.35;;;1.10;99.90;;;;;;5091633;28;20474;-62
2023/01/25 04:18:27;;;;;;;12.30;9.02;;;1.10;99.90;;;;;;5091149;28;20813;-62
2023/01/25 04:20:56;;;;;;;10.77;8.25;;;1.10;99.90;;;;;;5091076;28;20905;-63
2023/01/25 04:23:23;;;;;;;12.00;8.63;;;1.10;99.90;;;;;;5092696;28;20414;-62
2023/01/25 04:25:53;;;;;;;13.20;9.57;;;1.10;99.90;;;;;;5090929;28;20786;-62
2023/01/25 04:28:22;;;;;;;11.43;8.48;;;1.10;99.90;;;;;;5090649;28;20414;-62
2023/01/25 04:30:48;;;;;;;12.48;8.57;;;1.10;99.90;;;;;;5091356;28;20427;-62
2023/01/25 04:33:15;;;;;;;11.88;8.68;;;1.10;99.90;;;;;;5091037;28;20423;-63
2023/01/25 04:35:43;;;;;;;12.00;9.18;;;1.10;99.90;;;;;;5091492;28;20406;-62
2023/01/25 04:38:10;;;;;;;12.38;8.80;;;1.20;99.90;;;;;;5092411;28;20407;-62
2023/01/25 04:40:37;;;;;;;12.40;8.98;;;1.20;99.90;;;;;;5091428;28;20779;-62
2023/01/25 04:43:05;;;;;;;10.73;8.05;;;1.20;99.90;;;;;;5090513;28;20407;-62
2023/01/25 04:45:35;;;;;;;12.40;9.10;;;1.20;99.90;;;;;;5090680;28;20449;-62
2023/01/25 04:48:03;;;;;;;10.90;8.13;;;1.20;99.90;;;;;;5090788;28;20414;-62
2023/01/25 04:50:31;;;;;;;11.35;8.93;;;1.20;99.90;;;;;;5090928;28;20433;-62
2023/01/25 04:52:57;;;;;;;10.48;7.55;;;1.20;99.90;;;;;;5091167;28;20719;-63
2023/01/25 04:55:24;;;;;;;11.43;8.50;;;1.20;99.90;;;;;;5090804;28;20411;-62
2023/01/25 04:57:51;;;;;;;15.35;9.75;;;1.20;99.90;;;;;;5090182;28;20969;-63
2023/01/25 05:00:18;;;;;;;14.43;9.18;;;1.20;99.90;;;;;;5090898;28;20817;-63
2023/01/25 05:02:47;;;;;;;13.13;8.27;;;1.20;99.90;;;;;;5090393;28;20419;-61
2023/01/25 05:05:15;;;;;;;11.85;8.20;;;1.20;99.90;;;;;;5090869;28;20509;-61
2023/01/25 05:07:42;;;;;;;12.52;9.02;;;1.20;99.90;;;;;;5090556;28;20411;-63
2023/01/25 05:10:10;;;;;;;12.52;9.32;;;1.20;99.90;;;;;;5102490;28;20425;-61
2023/01/25 05:12:37;;;;;;;14.32;9.32;;;1.10;99.90;;;;;;5109071;28;20414;-62
2023/01/25 05:15:05;;;;;;;13.38;8.90;;;1.10;99.90;;;;;;5109412;28;20804;-62
2023/01/25 05:17:32;;;;;;;13.60;9.63;;;1.10;99.90;;;;;;5107020;28;20425;-62
2023/01/25 05:20:00;;;;;;;14.13;9.40;;;1.10;99.90;;;;;;5089180;28;20426;-63
2023/01/25 05:22:27;;;;;;;12.63;9.18;;;1.20;99.90;;;;;;5074711;28;20443;-63
2023/01/25 05:24:54;;;;;;;12.52;9.60;;;1.20;99.90;;;;;;5091626;28;20781;-62
2023/01/25 05:27:20;;;;;;;14.10;10.30;;;1.20;99.90;;;;;;5095292;28;20420;-62
2023/01/25 05:29:47;;;;;;;12.75;9.35;;;1.20;99.90;;;;;;5095008;28;20505;-62
2023/01/25 05:32:15;;;;;;;15.00;10.75;;;1.20;99.90;;;;;;5086389;28;21030;-61
2023/01/25 05:34:42;;;;;;;14.80;10.52;;;1.20;99.90;;;;;;5074880;28;20418;-62
2023/01/25 05:37:12;;;;;;;16.63;11.02;;;1.20;99.90;;;;;;5080451;28;20445;-62
2023/01/25 05:39:39;;;;;;;14.40;10.50;;;1.20;99.90;;;;;;5094691;28;20409;-62
2023/01/25 05:42:11;;;;;;;16.02;11.30;;;1.20;99.90;;;;;;5094019;28;20430;-63
2023/01/25 05:44:38;;;;;;;16.23;11.07;;;1.20;99.90;;;;;;5086617;28;20435;-62
2023/01/25 05:47:05;;;;;;;16.52;11.23;;;1.20;99.90;;;;;;5088364;28;20406;-60
2023/01/25 05:49:31;;;;;;;17.80;11.77;;;1.20;99.90;;;;;;5094324;28;20492;-61
2023/01/25 05:51:58;;;;;;;16.98;12.18;;;1.20;99.90;;;;;;5086317;28;20434;-61
2023/01/25 05:54:26;;;;;;;16.55;11.40;;;1.20;99.90;;;;;;5086838;28;20943;-62
2023/01/25 05:56:53;;;;;;;17.00;11.85;;;1.20;99.90;;;;;;5082322;28;20443;-61
2023/01/25 05:59:20;;;;;;;18.70;13.00;;;1.20;99.90;;;;;;5087370;28;20420;-61
2023/01/25 06:01:47;;;;;;;17.27;12.00;;;1.20;99.90;;;;;;5082118;28;20487;-60
2023/01/25 06:04:15;;;;;;;16.55;11.38;;;1.30;99.90;;;;;;5089980;28;20410;-62
2023/01/25 06:06:42;;;;;;;15.83;10.93;;;1.30;99.90;;;;;;5095080;28;20405;-61
2023/01/25 06:09:11;;;;;;;18.55;12.57;;;1.30;99.90;;;;;;5093952;28;20426;-61
2023/01/25 06:11:39;;;;;;;16.65;11.80;;;1.20;99.90;;;;;;5086616;28;20425;-62
2023/01/25 06:14:06;;;;;;;18.40;11.85;;;1.20;99.90;;;;;;5079703;28;20428;-61
2023/01/25 06:16:32;;;;;;;20.93;12.90;;;1.20;99.90;;;;;;5080753;28;20433;-62
2023/01/25 06:18:59;;;;;;;21.10;13.25;;;1.20;99.90;;;;;;5087334;28;20420;-62
2023/01/25 06:21:26;;;;;;;18.30;13.10;;;1.10;99.90;;;;;;5079929;28;20410;-62
2023/01/25 06:23:54;;;;;;;20.02;13.25;;;1.10;99.90;;;;;;5094779;28;20420;-63
2023/01/25 06:26:20;;;;;;;21.05;13.70;;;1.00;99.90;;;;;;5080471;28;20420;-63
2023/01/25 06:28:48;;;;;;;23.40;13.80;;;1.10;99.90;;;;;;5073555;28;20438;-61
2023/01/25 06:31:17;;;;;;;22.92;15.23;;;1.10;99.90;;;;;;5073810;28;20510;-61
2023/01/25 06:33:48;;;;;;;21.40;14.48;;;1.20;99.90;;;;;;5073110;28;20815;-62
2023/01/25 06:36:18;;;;;;;21.05;14.00;;;1.30;99.90;;;;;;5074497;28;20416;-63
2023/01/25 06:38:49;;;;;;;24.48;14.48;;;1.30;99.90;;;;;;5092832;28;20487;-63
2023/01/25 06:41:16;;;;;;;20.88;13.95;;;1.30;99.90;;;;;;5094671;28;20459;-62
2023/01/25 06:43:43;;;;;;;25.35;16.05;;;1.30;99.90;;;;;;5090974;28;20426;-63
2023/01/25 06:46:11;;;;;;;23.30;15.73;;;1.40;99.90;;;;;;5080572;28;20874;-64
2023/01/25 06:48:39;;;;;;;23.90;15.00;;;1.40;99.90;;;;;;5076844;28;20416;-63
2023/01/25 06:51:08;;;;;;;21.98;14.95;;;1.30;99.90;;;;;;5079880;28;20514;-61
2023/01/25 06:53:38;;;;;;;23.60;15.43;;;1.20;99.90;;;;;;5088980;28;20794;-62
2023/01/25 06:56:06;;;;;;;22.42;14.60;;;1.30;99.90;;;;;;5085267;28;20521;-62
2023/01/25 06:58:33;;;;;;;25.90;16.52;;;1.20;99.90;;;;;;5083190;28;20438;-62
2023/01/25 07:01:03;;;;;;;24.65;15.98;;;1.20;99.90;;;;;;5083737;28;20414;-63
2023/01/25 07:03:32;;;;;;;26.40;16.48;;;1.20;99.90;;;;;;5079433;28;20424;-62
2023/01/25 07:05:59;;;;;;;24.48;15.85;;;1.20;99.90;;;;;;5078445;28;20427;-63
2023/01/25 07:08:26;;;;;;;24.33;15.70;;;1.20;99.90;;;;;;5075018;28;20411;-62
2023/01/25 07:10:54;;;;;;;24.17;15.25;;;1.20;99.90;;;;;;5073670;28;20451;-61
2023/01/25 07:13:21;;;;;;;23.90;16.25;;;1.20;99.90;;;;;;5082094;28;20771;-63
2023/01/25 07:15:53;;;;;;;25.90;17.13;;;1.10;99.90;;;;;;5094710;28;20471;-62
2023/01/25 07:18:19;;;;;;;24.75;16.40;;;1.10;99.90;;;;;;5076712;28;20412;-64
2023/01/25 07:20:47;;;;;;;26.60;16.33;;;1.10;99.90;;;;;;5073440;28;20487;-63
2023/01/25 07:23:14;;;;;;;25.65;16.80;;;1.10;99.90;;;;;;5087839;28;20762;-62
2023/01/25 07:25:44;;;;;;;23.88;15.88;;;1.10;99.90;;;;;;5093542;28;20445;-61
2023/01/25 07:28:11;;;;;;;25.50;16.60;;;1.10;99.90;;;;;;5095565;28;20455;-62
2023/01/25 07:30:38;;;;;;;26.65;16.50;;;1.10;99.90;;;;;;5090731;28;20438;-62
2023/01/25 07:33:05;;;;;;;25.67;16.80;;;1.10;99.90;;;;;;5093598;28;20489;-63
2023/01/25 07:35:32;;;;;;;26.98;16.80;;;1.10;99.90;;;;;;5074679;28;20494;-62
2023/01/25 07:38:00;;;;;;;26.33;15.35;;;1.10;99.90;;;;;;5074770;28;20416;-61
2023/01/25 07:40:27;;;;;;;25.13;16.88;;;1.10;99.90;;;;;;5093854;28;20430;-62
2023/01/25 07:42:54;;;;;;;27.95;16.75;;;1.10;99.90;;;;;;5091868;28;20593;-62
2023/01/25 07:45:21;;;;;;;27.10;16.85;;;1.10;99.90;;;;;;5078435;28;20432;-62
2023/01/25 07:47:47;;;;;;;21.70;14.90;;;1.20;99.90;;;;;;5080310;28;20499;-62
2023/01/25 07:50:15;;;;;;;25.45;15.85;;;1.20;99.90;;;;;;5094525;28;20426;-62
2023/01/25 07:52:41;;;;;;;23.35;15.25;;;1.20;99.90;;;;;;5093818;28;20432;-62
2023/01/25 07:55:10;;;;;;;19.15;13.18;;;1.20;99.90;;;;;;5076077;28;20411;-63
2023/01/25 07:57:37;;;;;;;22.75;14.70;;;1.10;99.90;;;;;;5077595;28;20502;-62
2023/01/25 08:00:06;;;;;;;25.57;15.13;;;1.10;99.90;;;;;;5075120;28;20422;-63
2023/01/25 08:02:33;;;;;;;20.55;14.95;;;1.10;99.90;;;;;;5074693;28;20423;-63
2023/01/25 08:04:59;;;;;;;19.13;14.10;;;1.10;99.90;;;;;;5078284;28;20490;-63
2023/01/25 08:07:29;;;;;;;22.92;15.60;;;1.10;99.90;;;;;;5077887;28;20879;-63
2023/01/25 08:09:56;;;;;;;26.40;16.52;;;1.10;99.90;;;;;;5077406;28;20414;-64
2023/01/25 08:12:25;;;;;;;23.42;16.27;;;1.10;99.90;;;;;;5076862;28;20426;-62
2023/01/25 08:14:52;;;;;;;23.40;15.23;;;1.10;99.90;;;;;;5078580;28;20502;-62
2023/01/25 08:17:19;;;;;;;20.90;15.40;;;1.10;99.90;;;;;;5078986;28;20419;-62
2023/01/25 08:19:46;;;;;;;25.17;15.75;;;1.10;99.90;;;;;;5079973;28;20878;-65
2023/01/25 08:22:13;;;;;;;23.85;14.95;;;1.20;99.90;;;;;;5082337;28;20411;-61
2023/01/25 08:24:39;;;;;;;21.58;15.07;;;1.20;99.90;;;;;;5082581;28;20411;-63
2023/01/25 08:27:06;;;;;;;21.38;14.15;;;1.20;99.90;;;;;;5086362;28;20804;-62
2023/01/25 08:29:34;;;;;;;19.80;13.95;;;1.20;99.90;;;;;;5085574;28;20422;-62
2023/01/25 08:32:03;;;;;;;20.40;14.03;;;1.20;99.90;;;;;;5082482;28;20549;-62
2023/01/25 08:34:31;;;;;;;17.63;12.53;;;1.20;99.90;;;;;;5082248;28;20581;-67
2023/01/25 08:36:58;;;;;;;17.05;11.95;;;1.10;99.90;;;;;;5083845;28;20412;-62
2023/01/25 08:39:25;;;;;;;20.02;12.90;;;1.10;99.90;;;;;;5080912;28;20436;-61
2023/01/25 08:41:51;;;;;;;21.30;12.73;;;1.10;99.90;;;;;;5078502;28;20415;-62
2023/01/25 08:44:21;;;;;;;20.58;14.50;;;1.10;99.90;;;;;;5078522;28;20418;-60
2023/01/25 08:46:49;;;;;;;20.70;14.00;;;1.00;99.90;;;;;;5078543;28;20490;-62
2023/01/25 08:49:16;;;;;;;23.33;15.80;;;1.00;99.90;;;;;;5079070;28;20429;-62
2023/01/25 08:51:43;;;;;;;20.88;15.10;;;1.00;99.90;;;;;;5073249;28;20423;-62
2023/01/25 08:54:11;;;;;;;19.52;13.77;;;1.10;99.90;;;;;;5073335;28;20411;-63
2023/01/25 08:56:39;;;;;;;22.08;14.82;;;1.10;99.90;;;;;;5074583;28;20416;-62
2023/01/25 08:59:06;;;;;;;22.08;14.27;;;1.20;99.90;;;;;;5076851;28;20413;-62
2023/01/25 09:01:33;;;;;;;20.40;13.68;;;1.20;99.90;;;;;;5077552;28;20403;-62
2023/01/25 09:04:01;;;;;;;21.17;14.27;;;1.20;99.90;;;;;;5077119;28;20427;-64
2023/01/25 09:06:28;;;;;;;20.55;13.90;;;1.30;99.90;;;;;;5076446;28;20830;-62
2023/01/25 09:08:54;;;;;;;19.77;14.40;;;1.30;99.90;;;;;;5076312;28;20425;-62
2023/01/25 09:11:22;;;;;;;22.35;14.40;;;1.30;99.90;;;;;;5076448;28;20423;-61
2023/01/25 09:13:49;;;;;;;18.95;13.55;;;1.30;99.90;;;;;;5075889;28;20412;-61
2023/01/25 09:16:19;;;;;;;23.25;15.75;;;1.30;99.90;;;;;;5076358;28;20416;-62
2023/01/25 09:18:46;;;;;;;22.13;14.68;;;1.20;99.90;;;;;;5076387;28;20812;-61
2023/01/25 09:21:17;;;;;;;22.63;14.30;;;1.10;99.90;;;;;;5076526;28;20779;-62
2023/01/25 09:23:44;;;;;;;25.55;15.90;;;1.00;99.90;;;;;;5076601;28;20411;-61
2023/01/25 09:26:14;;;;;;;23.00;16.23;;;1.00;99.90;;;;;;5077216;28;20422;-63
2023/01/25 09:28:41;;;;;;;24.10;16.10;;;1.00;99.90;;;;;;5077502;28;20414;-62
2023/01/25 09:31:10;;;;;;;30.08;17.73;;;0.90;99.90;;;;;;5077586;28;20434;-62
2023/01/25 09:33:39;;;;;;;27.17;17.70;;;0.90;99.90;;;;;;5078030;28;20407;-61
2023/01/25 09:36:07;;;;;;;28.25;18.42;;;1.00;99.90;;;;;;5076588;28;20427;-62
2023/01/25 09:38:35;;;;;;;26.30;16.88;;;1.10;99.90;;;;;;5077956;28;20402;-60
2023/01/25 09:41:21;;;;;;;22.92;15.13;;;1.20;99.90;;;;;;5078395;28;20407;-61
2023/01/25 09:44:12;;;;;;;22.60;16.13;;;1.20;99.90;;;;;;5076591;28;20412;-63
2023/01/25 09:46:41;;;;;;;25.05;16.35;;;1.30;99.90;;;;;;5076241;28;20407;-64
2023/01/25 09:49:22;;;;;;;22.27;15.82;;;1.30;99.90;;;;;;5075452;28;20426;-61
2023/01/25 09:52:03;;;;;;;28.60;20.60;;;1.30;99.90;;;;;;5075171;28;20764;-62
2023/01/25 09:54:33;;;;;;;21.10;13.90;;;1.30;99.90;;;;;;5075804;28;20431;-62
2023/01/25 09:57:01;;;;;;;21.58;14.10;;;1.30;99.90;;;;;;5075215;28;20438;-61
2023/01/25 09:59:30;;;;;;;19.50;13.45;;;1.30;99.90;;;;;;5074902;28;20416;-61
2023/01/25 10:02:02;;;;;;;20.97;13.73;;;1.30;99.90;;;;;;5076582;28;20454;-62
2023/01/25 10:04:33;;;;;;;21.20;14.82;;;1.30;99.90;;;;;;5077192;28;20418;-62
2023/01/25 10:07:12;;;;;;;19.65;14.07;;;1.30;99.90;;;;;;5075731;28;20411;-61
2023/01/25 10:09:54;;;;;;;23.10;15.30;;;1.30;99.90;;;;;;5077151;28;20928;-61
2023/01/25 10:12:24;;;;;;;21.13;13.82;;;1.30;99.90;;;;;;5076846;28;20424;-60
2023/01/25 10:14:52;;;;;;;21.52;14.57;;;1.30;99.90;;;;;;5076671;28;20419;-62
2023/01/25 10:17:26;;;;;;;18.40;14.00;;;1.20;99.90;;;;;;5077664;28;20782;-62
2023/01/25 10:20:08;;;;;;;22.20;15.40;;;1.20;99.90;;;;;;5077592;28;20422;-62
2023/01/25 10:22:39;;;;;;;24.00;14.90;;;1.20;99.90;;;;;;5075363;28;20863;-61
2023/01/25 10:25:22;;;;;;;19.02;13.43;;;1.20;99.90;;;;;;5076654;28;20407;-62
2023/01/25 10:28:12;;;;;;;22.30;14.93;;;1.30;99.90;;;;;;5074310;28;20415;-61
2023/01/25 10:30:47;;;;;;;19.73;13.57;;;1.30;99.90;;;;;;5074640;28;20787;-61
2023/01/25 10:33:17;;;;;;;17.90;13.13;;;1.40;99.90;;;;;;5074116;28;20412;-61
2023/01/25 10:35:45;;;;;;;19.90;13.50;;;1.30;99.90;;;;;;5074564;28;20415;-63
2023/01/25 10:38:18;;;;;;;22.87;14.20;;;1.30;99.90;;;;;;5074530;28;20411;-62
2023/01/25 10:40:52;;;;;;;20.00;13.65;;;1.30;99.90;;;;;;5074344;28;20419;-60
2023/01/25 10:43:21;;;;;;;23.02;15.07;;;1.30;99.90;;;;;;5075085;28;20411;-63
2023/01/25 10:45:49;;;;;;;21.00;14.32;;;1.30;99.90;;;;;;5075143;28;20903;-62
2023/01/25 10:48:20;;;;;;;20.70;14.40;;;1.30;99.90;;;;;;5074244;28;20783;-62
2023/01/25 10:50:51;;;;;;;19.70;13.30;;;1.40;99.90;;;;;;5074446;28;20470;-62
2023/01/25 10:53:24;;;;;;;20.40;12.23;;;1.40;99.90;;;;;;5075670;28;20418;-60
2023/01/25 10:56:19;;;;;;;19.42;13.50;;;1.40;99.90;;;;;;5075755;28;20451;-62
2023/01/25 10:58:47;;;;;;;19.70;13.70;;;1.30;99.90;;;;;;5069564;28;20423;-62
2023/01/25 11:01:26;;;;;;;23.10;15.13;;;1.40;99.90;;;;;;5074632;28;20408;-62
2023/01/25 11:03:52;;;;;;;20.75;14.18;;;1.40;99.90;;;;;;5074000;28;20416;-62
2023/01/25 11:06:31;;;;;;;22.10;14.93;;;1.40;99.90;;;;;;5074522;28;20411;-62
2023/01/25 11:08:58;;;;;;;19.70;13.45;;;1.50;99.90;;;;;;5074190;28;20913;-62
2023/01/25 11:11:32;;;;;;;25.87;17.47;;;1.60;99.90;;;;;;5074180;28;20835;-61
2023/01/25 11:13:59;;;;;;;19.55;14.45;;;1.60;99.90;;;;;;5074449;28;20453;-62
2023/01/25 11:16:31;;;;;;;20.40;14.35;;;1.60;99.90;;;;;;5074506;28;20416;-61
2023/01/25 11:19:01;;;;;;;22.15;15.18;;;1.60;99.90;;;;;;5074129;28;20422;-62
2023/01/25 11:21:30;;;;;;;20.67;14.53;;;1.50;99.90;;;;;;5074896;28;20419;-62
2023/01/25 11:24:16;;;;;;;22.93;16.13;;;1.50;99.90;;;;;;5074856;28;20502;-62
2023/01/25 11:26:44;;;;;;;21.40;13.60;;;1.50;99.90;;;;;;5074338;28;20433;-61
2023/01/25 11:29:14;;;;;;;20.40;14.23;;;1.50;99.90;;;;;;5074996;28;20422;-62
2023/01/25 11:31:45;;;;;;;20.58;13.70;;;1.30;99.90;;;;;;5074972;28;20430;-62
2023/01/25 11:34:14;;;;;;;17.42;12.20;;;1.30;99.90;;;;;;5075086;28;20410;-63
2023/01/25 11:37:08;;;;;;;13.32;10.75;;;1.20;99.90;;;;;;5075443;28;20420;-61
2023/01/25 11:39:44;;;;;;;18.17;12.85;;;1.20;99.90;;;;;;5074906;28;20412;-62
2023/01/25 11:42:26;;;;;;;20.93;13.97;;;1.20;99.90;;;;;;5074728;28;20416;-63
2023/01/25 11:45:23;;;;;;;19.92;13.98;;;1.20;99.90;;;;;;5075245;28;20415;-62
2023/01/25 11:48:05;;;;;;;19.83;13.90;;;1.30;99.90;;;;;;5079247;28;20434;-61
2023/01/25 11:50:37;;;;;;;18.70;13.00;;;1.30;99.90;;;;;;5073881;28;20415;-62
2023/01/25 11:53:26;;;;;;;19.23;13.20;;;1.30;99.90;;;;;;5072906;28;20450;-63
2023/01/25 11:56:01;;;;;;;17.27;12.48;;;1.30;99.90;;;;;;5073659;28;20771;-62
2023/01/25 11:58:57;;;;;;;17.33;11.65;;;1.30;99.90;;;;;;5073891;28;20779;-62
2023/01/25 12:01:33;;;;;;;20.27;12.45;;;1.30;99.90;;;;;;5075134;28;20404;-62
2023/01/25 12:04:42;;;;;;;16.33;12.20;;;1.40;99.90;;;;;;5074203;28;20415;-62
2023/01/25 12:07:14;;;;;;;17.83;12.38;;;1.40;99.90;;;;;;5037438;28;20418;-62
2023/01/25 12:09:59;;;;;;;17.00;11.90;;;1.50;99.90;;;;;;5073034;28;20411;-59
2023/01/25 12:12:39;;;;;;;15.38;11.23;;;1.50;99.90;;;;;;5074990;28;20436;-63
2023/01/25 12:15:47;;;;;;;15.68;10.98;;;1.50;99.90;;;;;;5074849;28;20416;-62
2023/01/25 12:18:28;;;;;;;17.48;11.82;;;1.40;99.90;;;;;;5012188;28;20417;-62
2023/01/25 12:21:06;;;;;;;17.73;11.80;;;1.40;99.90;;;;;;5066069;28;20930;-61
2023/01/25 12:23:46;;;;;;;18.80;12.70;;;1.30;99.90;;;;;;5073701;28;20412;-61
2023/01/25 12:26:23;;;;;;;19.98;12.55;;;1.30;99.90;;;;;;5074155;28;20509;-62
2023/01/25 12:28:57;;;;;;;15.75;11.30;;;1.30;99.90;;;;;;5075712;28;20519;-61
2023/01/25 12:31:30;;;;;;;17.55;12.95;;;1.30;99.90;;;;;;5077283;28;20439;-62
2023/01/25 12:33:59;;;;;;;16.90;11.63;;;1.30;99.90;;;;;;5079441;28;20595;-62
2023/01/25 12:36:31;;;;;;;17.33;11.50;;;1.20;99.90;;;;;;5078777;28;20407;-62
2023/01/25 12:39:03;;;;;;;16.83;11.77;;;1.20;99.90;;;;;;5079192;28;20414;-61
2023/01/25 12:41:38;;;;;;;18.63;12.53;;;1.20;99.90;;;;;;5079813;28;20746;-61
2023/01/25 12:44:14;;;;;;;18.07;12.70;;;1.20;99.90;;;;;;5080481;28;20495;-60
2023/01/25 12:46:51;;;;;;;18.08;12.95;;;1.20;99.90;;;;;;5080501;28;20418;-62
2023/01/25 12:49:29;;;;;;;18.35;12.50;;;1.20;99.90;;;;;;5078739;28;20415;-62
2023/01/25 12:51:58;;;;;;;18.60;12.02;;;1.30;99.90;;;;;;5080008;28;20423;-62
2023/01/25 12:54:31;;;;;;;18.30;11.90;;;1.40;99.90;;;;;;5079392;28;20416;-60